createdAt,value
2022-12-16T00:00:20.558Z,61.75
2022-12-16T00:01:28.584Z,60.99
2022-12-16T00:02:32.433Z,61.80
2022-12-16T00:03:40.966Z,64.56
2022-12-16T00:04:44.862Z,60.92
2022-12-16T00:05:53.036Z,59.58
2022-12-16T00:06:58.662Z,62.33
2022-12-16T00:08:08.049Z,62.19
2022-12-16T00:09:12.932Z,61.24
2022-12-16T00:10:20.489Z,60.96
2022-12-16T00:11:24.800Z,60.07
2022-12-16T00:12:30.995Z,58.91
2022-12-16T00:13:40.531Z,60.08
2022-12-16T00:14:47.359Z,59.60
2022-12-16T00:15:50.685Z,61.19
2022-12-16T00:16:56.593Z,62.55
2022-12-16T00:17:59.958Z,59.21
2022-12-16T00:19:06.256Z,60.58
2022-12-16T00:20:12.555Z,61.05
2022-12-16T00:21:18.885Z,72.29
2022-12-16T00:22:22.851Z,58.36
2022-12-16T00:23:32.514Z,60.14
2022-12-16T00:24:36.516Z,59.08
2022-12-16T00:25:46.048Z,60.14
2022-12-16T00:26:52.605Z,64.84
2022-12-16T00:28:00.468Z,62.72
2022-12-16T00:29:07.280Z,60.89
2022-12-16T00:30:15.257Z,61.54
2022-12-16T00:31:22.115Z,61.63
2022-12-16T00:32:25.497Z,60.89
2022-12-16T00:33:32.573Z,63.24
2022-12-16T00:34:36.273Z,61.82
2022-12-16T00:35:45.886Z,64.43
2022-12-16T00:36:52.992Z,61.10
2022-12-16T00:37:56.335Z,61.96
2022-12-16T00:39:06.438Z,62.28
2022-12-16T00:40:11.976Z,61.78
2022-12-16T00:41:17.976Z,62.13
2022-12-16T00:42:22.200Z,60.50
2022-12-16T00:43:28.552Z,63.29
2022-12-16T00:44:32.058Z,61.90
2022-12-16T00:45:39.305Z,63.07
2022-12-16T00:46:42.842Z,61.96
2022-12-16T00:47:54.407Z,63.29
2022-12-16T00:48:58.616Z,61.21
2022-12-16T00:50:05.128Z,61.02
2022-12-16T00:51:08.535Z,61.44
2022-12-16T00:52:14.409Z,62.53
2022-12-16T00:53:18.993Z,64.45
2022-12-16T00:54:32.116Z,61.68
2022-12-16T00:55:35.450Z,62.89
2022-12-16T00:56:41.508Z,61.81
2022-12-16T00:57:45.758Z,61.25
2022-12-16T00:58:52.520Z,63.33
2022-12-16T00:59:58.224Z,61.93
2022-12-16T01:01:06.025Z,61.56
2022-12-16T01:02:11.332Z,60.76
2022-12-16T01:03:21.470Z,65.98
2022-12-16T01:04:29.678Z,64.16
2022-12-16T01:05:33.084Z,67.87
2022-12-16T01:06:39.117Z,67.36
2022-12-16T01:07:42.994Z,67.59
2022-12-16T01:08:49.485Z,67.30
2022-12-16T01:09:56.271Z,70.35
2022-12-16T01:11:02.278Z,70.76
2022-12-16T01:12:06.646Z,72.49
2022-12-16T01:13:12.922Z,73.34
2022-12-16T01:14:19.652Z,70.96
2022-12-16T01:15:24.290Z,69.35
2022-12-16T01:16:30.424Z,66.26
2022-12-16T01:17:35.303Z,67.96
2022-12-16T01:18:41.573Z,68.35
2022-12-16T01:19:47.569Z,64.82
2022-12-16T01:20:51.881Z,63.62
2022-12-16T01:21:57.825Z,63.32
2022-12-16T01:23:01.532Z,63.08
2022-12-16T01:24:13.315Z,62.74
2022-12-16T01:25:19.432Z,61.31
2022-12-16T01:26:26.972Z,64.77
2022-12-16T01:27:30.899Z,62.27
2022-12-16T01:28:36.852Z,63.81
2022-12-16T01:29:40.806Z,60.25
2022-12-16T01:30:46.767Z,60.72
2022-12-16T01:31:51.560Z,63.19
2022-12-16T01:32:58.241Z,65.03
2022-12-16T01:34:01.529Z,64.10
2022-12-16T01:35:29.489Z,62.93
2022-12-16T01:36:35.626Z,59.99
2022-12-16T01:37:40.089Z,63.26
2022-12-16T01:38:48.084Z,64.72
2022-12-16T01:39:52.580Z,65.47
2022-12-16T01:41:01.364Z,62.45
2022-12-16T01:42:12.368Z,61.96
2022-12-16T01:43:24.427Z,62.89
2022-12-16T01:44:28.290Z,62.59
2022-12-16T01:45:38.924Z,61.26
2022-12-16T01:46:47.645Z,61.06
2022-12-16T01:47:58.064Z,62.93
2022-12-16T01:49:14.401Z,61.79
2022-12-16T01:50:19.558Z,62.07
2022-12-16T01:51:33.215Z,65.19
2022-12-16T01:52:44.442Z,63.52
2022-12-16T01:53:58.976Z,62.58
2022-12-16T01:55:12.439Z,63.98
2022-12-16T01:56:27.718Z,61.12
2022-12-16T01:57:41.151Z,62.85
2022-12-16T01:58:49.748Z,61.56
2022-12-16T01:59:57.940Z,62.33
2022-12-16T02:01:06.403Z,61.61
2022-12-16T02:02:12.172Z,62.02
2022-12-16T02:03:19.869Z,60.46
2022-12-16T02:04:23.411Z,59.49
2022-12-16T02:05:32.041Z,61.08
2022-12-16T02:06:36.212Z,59.41
2022-12-16T02:07:42.105Z,59.24
2022-12-16T02:08:47.981Z,61.43
2022-12-16T02:09:52.167Z,62.47
2022-12-16T02:11:26.850Z,59.68
2022-12-16T02:12:52.510Z,61.25
2022-12-16T02:14:39.196Z,59.79
2022-12-16T02:15:57.843Z,61.25
2022-12-16T02:17:17.485Z,60.88
2022-12-16T02:18:39.702Z,62.21
2022-12-16T02:20:19.883Z,62.58
2022-12-16T02:21:51.840Z,60.64
2022-12-16T02:23:37.016Z,65.31
2022-12-16T02:25:35.637Z,66.03
2022-12-16T02:27:30.208Z,62.82
2022-12-16T02:29:12.886Z,64.05
2022-12-16T02:30:56.508Z,62.56
2022-12-16T02:32:20.139Z,63.00
2022-12-16T02:34:13.617Z,63.51
2022-12-16T02:35:36.065Z,58.63
2022-12-16T02:37:05.871Z,59.31
2022-12-16T02:38:29.019Z,62.18
2022-12-16T02:39:40.134Z,64.53
2022-12-16T02:40:58.791Z,60.48
2022-12-16T02:42:17.450Z,60.37
2022-12-16T02:43:53.633Z,61.30
2022-12-16T02:45:09.196Z,60.70
2022-12-16T02:46:20.164Z,61.62
2022-12-16T02:47:27.206Z,62.73
2022-12-16T02:48:30.805Z,60.49
2022-12-16T02:49:53.177Z,62.89
2022-12-16T02:50:56.984Z,60.17
2022-12-16T02:52:05.492Z,61.41
2022-12-16T02:53:13.871Z,61.27
2022-12-16T02:54:19.449Z,63.75
2022-12-16T02:55:41.454Z,61.25
2022-12-16T02:57:06.085Z,64.69
2022-12-16T02:58:28.244Z,60.17
2022-12-16T02:59:49.757Z,59.87
2022-12-16T03:01:11.961Z,60.52
2022-12-16T03:02:31.383Z,62.30
2022-12-16T03:03:49.780Z,62.45
2022-12-16T03:05:08.938Z,61.15
2022-12-16T03:06:22.266Z,62.32
2022-12-16T03:07:32.515Z,62.08
2022-12-16T03:08:47.212Z,66.84
2022-12-16T03:09:55.311Z,68.63
2022-12-16T03:11:08.389Z,64.52
2022-12-16T03:12:18.569Z,65.58
2022-12-16T03:13:28.064Z,66.00
2022-12-16T03:14:39.696Z,64.71
2022-12-16T03:15:51.590Z,66.93
2022-12-16T03:16:56.117Z,65.21
2022-12-16T03:18:10.873Z,69.90
2022-12-16T03:19:14.871Z,68.71
2022-12-16T03:20:30.455Z,71.79
2022-12-16T03:21:48.120Z,66.46
2022-12-16T03:22:55.827Z,63.16
2022-12-16T03:24:08.555Z,64.27
2022-12-16T03:25:12.744Z,62.94
2022-12-16T03:26:27.999Z,63.13
2022-12-16T03:27:46.752Z,62.76
2022-12-16T03:29:02.256Z,62.71
2022-12-16T03:30:13.556Z,63.09
2022-12-16T03:31:41.918Z,64.02
2022-12-16T03:32:57.182Z,63.78
2022-12-16T03:34:17.936Z,65.31
2022-12-16T03:35:29.267Z,64.33
2022-12-16T03:36:42.856Z,64.69
2022-12-16T03:37:53.371Z,65.72
2022-12-16T03:39:02.820Z,65.40
2022-12-16T03:40:14.887Z,63.60
2022-12-16T03:41:24.136Z,63.72
2022-12-16T03:42:31.590Z,64.69
2022-12-16T03:43:35.560Z,67.65
2022-12-16T03:44:42.776Z,65.23
2022-12-16T03:45:52.091Z,64.47
2022-12-16T03:46:58.226Z,66.22
2022-12-16T03:48:02.426Z,65.03
2022-12-16T03:49:11.023Z,67.80
2022-12-16T03:50:14.760Z,66.77
2022-12-16T03:51:21.739Z,67.32
2022-12-16T03:52:25.105Z,68.27
2022-12-16T03:53:32.350Z,68.80
2022-12-16T03:54:38.600Z,68.06
2022-12-16T03:55:41.918Z,65.64
2022-12-16T03:56:47.883Z,68.18
2022-12-16T03:57:51.293Z,68.89
2022-12-16T03:58:58.919Z,68.05
2022-12-16T04:00:02.296Z,67.31
2022-12-16T04:01:18.642Z,66.75
2022-12-16T04:02:22.249Z,67.93
2022-12-16T04:03:28.339Z,67.18
2022-12-16T04:04:35.231Z,68.09
2022-12-16T04:05:41.703Z,68.00
2022-12-16T04:06:45.095Z,66.23
2022-12-16T04:07:51.080Z,64.69
2022-12-16T04:08:54.575Z,67.09
2022-12-16T04:10:01.376Z,67.45
2022-12-16T04:11:19.735Z,67.56
2022-12-16T04:12:38.287Z,64.84
2022-12-16T04:13:56.668Z,67.87
2022-12-16T04:15:15.903Z,67.86
2022-12-16T04:16:34.183Z,66.87
2022-12-16T04:17:52.804Z,67.41
2022-12-16T04:19:11.356Z,67.76
2022-12-16T04:20:40.114Z,64.15
2022-12-16T04:21:58.532Z,65.99
2022-12-16T04:23:17.788Z,65.45
2022-12-16T04:24:32.036Z,65.58
2022-12-16T04:25:41.504Z,65.90
2022-12-16T04:26:59.768Z,63.92
2022-12-16T04:28:06.548Z,61.61
2022-12-16T04:29:09.854Z,60.57
2022-12-16T04:30:23.295Z,63.71
2022-12-16T04:31:27.637Z,62.43
2022-12-16T04:32:56.204Z,61.97
2022-12-16T04:34:14.595Z,57.65
2022-12-16T04:35:36.779Z,60.23
2022-12-16T04:37:04.645Z,61.42
2022-12-16T04:38:23.094Z,59.29
2022-12-16T04:39:50.185Z,57.43
2022-12-16T04:41:08.709Z,58.46
2022-12-16T04:42:27.664Z,62.16
2022-12-16T04:43:46.074Z,61.05
2022-12-16T04:45:04.596Z,60.24
2022-12-16T04:46:23.069Z,61.34
2022-12-16T04:47:42.297Z,61.11
2022-12-16T04:49:00.698Z,61.57
2022-12-16T04:50:19.347Z,60.89
2022-12-16T04:51:40.244Z,61.21
2022-12-16T04:52:59.341Z,61.47
2022-12-16T04:54:17.988Z,63.78
2022-12-16T04:55:36.481Z,62.64
2022-12-16T04:56:54.770Z,63.40
2022-12-16T04:58:17.385Z,62.65
2022-12-16T04:59:35.732Z,64.01
2022-12-16T05:00:55.751Z,64.95
2022-12-16T05:02:14.529Z,66.43
2022-12-16T05:03:33.859Z,66.60
2022-12-16T05:04:52.456Z,67.80
2022-12-16T05:06:10.730Z,71.11
2022-12-16T05:07:37.772Z,70.65
2022-12-16T05:08:57.407Z,71.18
2022-12-16T05:10:15.740Z,68.71
2022-12-16T05:11:34.044Z,66.84
2022-12-16T05:12:52.460Z,69.47
2022-12-16T05:14:11.590Z,65.45
2022-12-16T05:15:30.158Z,64.87
2022-12-16T05:16:48.579Z,65.16
2022-12-16T05:18:06.886Z,63.93
2022-12-16T05:19:31.473Z,62.98
2022-12-16T05:20:50.348Z,62.49
2022-12-16T05:22:09.247Z,61.68
2022-12-16T05:23:30.632Z,62.06
2022-12-16T05:24:53.060Z,60.15
2022-12-16T05:26:11.707Z,57.59
2022-12-16T05:27:30.061Z,59.17
2022-12-16T05:28:48.492Z,58.39
2022-12-16T05:30:07.703Z,58.93
2022-12-16T05:31:26.169Z,58.80
2022-12-16T05:32:44.631Z,56.89
2022-12-16T05:34:03.104Z,55.66
2022-12-16T05:35:23.038Z,56.28
2022-12-16T05:36:41.324Z,54.97
2022-12-16T05:37:59.614Z,55.22
2022-12-16T05:39:23.220Z,55.62
2022-12-16T05:40:42.468Z,56.06
2022-12-16T05:42:00.784Z,54.81
2022-12-16T05:43:19.190Z,55.63
2022-12-16T05:44:37.544Z,56.61
2022-12-16T05:45:57.845Z,54.51
2022-12-16T05:47:16.274Z,54.46
2022-12-16T05:48:34.705Z,54.46
2022-12-16T05:49:53.344Z,53.36
2022-12-16T05:51:13.054Z,52.34
2022-12-16T05:52:32.556Z,54.49
2022-12-16T05:53:51.061Z,54.93
2022-12-16T05:55:12.272Z,54.62
2022-12-16T05:56:31.370Z,53.91
2022-12-16T05:57:49.864Z,54.38
2022-12-16T05:59:08.264Z,55.94
2022-12-16T06:00:28.913Z,55.82
2022-12-16T06:01:48.136Z,55.07
2022-12-16T06:03:06.684Z,54.44
2022-12-16T06:04:30.940Z,54.46
2022-12-16T06:05:49.349Z,54.44
2022-12-16T06:07:08.625Z,52.76
2022-12-16T06:08:27.005Z,52.17
2022-12-16T06:09:56.307Z,54.14
2022-12-16T06:11:17.678Z,53.72
2022-12-16T06:12:36.853Z,50.83
2022-12-16T06:13:55.204Z,53.38
2022-12-16T06:15:13.688Z,56.28
2022-12-16T06:16:32.062Z,55.54
2022-12-16T06:17:51.442Z,54.25
2022-12-16T06:19:09.838Z,53.85
2022-12-16T06:20:28.388Z,56.24
2022-12-16T06:21:46.822Z,52.92
2022-12-16T06:23:07.303Z,52.96
2022-12-16T06:24:25.956Z,50.71
2022-12-16T06:25:44.924Z,51.30
2022-12-16T06:27:05.909Z,51.20
2022-12-16T06:28:25.080Z,54.53
2022-12-16T06:29:43.419Z,54.88
2022-12-16T06:31:01.824Z,53.50
2022-12-16T06:32:20.313Z,52.32
2022-12-16T06:33:39.877Z,53.16
2022-12-16T06:34:58.261Z,51.01
2022-12-16T06:36:16.502Z,52.44
2022-12-16T06:37:35.810Z,51.54
2022-12-16T06:38:54.902Z,49.65
2022-12-16T06:40:13.379Z,50.87
2022-12-16T06:41:31.886Z,51.42
2022-12-16T06:42:55.989Z,51.80
2022-12-16T06:44:15.472Z,51.65
2022-12-16T06:45:48.867Z,50.36
2022-12-16T06:47:07.314Z,50.69
2022-12-16T06:48:27.076Z,50.92
2022-12-16T06:49:46.352Z,50.19
2022-12-16T06:51:19.403Z,51.32
2022-12-16T06:52:37.758Z,52.07
2022-12-16T06:53:56.506Z,51.35
2022-12-16T06:55:15.953Z,51.20
2022-12-16T06:56:35.230Z,51.79
2022-12-16T06:57:56.503Z,50.27
2022-12-16T06:59:17.542Z,49.71
2022-12-16T07:00:39.704Z,51.18
2022-12-16T07:01:59.753Z,51.02
2022-12-16T07:03:18.429Z,50.09
2022-12-16T07:04:37.111Z,51.42
2022-12-16T07:05:56.923Z,51.77
2022-12-16T07:07:15.511Z,50.69
2022-12-16T07:08:34.047Z,50.20
2022-12-16T07:09:53.470Z,49.61
2022-12-16T07:11:17.285Z,48.41
2022-12-16T07:12:36.106Z,49.33
2022-12-16T07:14:11.846Z,49.47
2022-12-16T07:15:30.518Z,48.16
2022-12-16T07:16:50.234Z,47.07
2022-12-16T07:18:08.614Z,49.90
2022-12-16T07:19:26.898Z,49.17
2022-12-16T07:20:45.948Z,50.83
2022-12-16T07:22:05.163Z,50.92
2022-12-16T07:23:23.555Z,49.47
2022-12-16T07:24:41.876Z,49.03
2022-12-16T07:26:00.342Z,47.89
2022-12-16T07:27:20.351Z,50.13
2022-12-16T07:28:38.781Z,49.16
2022-12-16T07:29:59.907Z,48.80
2022-12-16T07:31:18.415Z,49.47
2022-12-16T07:32:37.603Z,50.03
2022-12-16T07:33:56.134Z,51.04
2022-12-16T07:35:14.415Z,50.88
2022-12-16T07:36:33.448Z,55.01
2022-12-16T07:37:54.980Z,56.64
2022-12-16T07:39:13.588Z,63.38
2022-12-16T07:40:32.130Z,64.41
2022-12-16T07:41:50.460Z,61.29
2022-12-16T07:43:12.075Z,63.50
2022-12-16T07:44:30.524Z,62.95
2022-12-16T07:45:51.529Z,66.42
2022-12-16T07:47:11.718Z,64.41
2022-12-16T07:48:39.957Z,65.22
2022-12-16T07:49:58.276Z,62.31
2022-12-16T07:51:18.220Z,61.61
2022-12-16T07:52:36.735Z,63.45
2022-12-16T07:54:07.796Z,69.46
2022-12-16T07:55:26.207Z,65.37
2022-12-16T07:56:44.511Z,63.09
2022-12-16T07:58:06.135Z,64.26
2022-12-16T07:59:25.240Z,62.83
2022-12-16T08:00:43.598Z,59.73
2022-12-16T08:02:04.726Z,60.62
2022-12-16T08:03:23.263Z,60.39
2022-12-16T08:04:42.648Z,58.42
2022-12-16T08:06:00.982Z,60.28
2022-12-16T08:07:19.813Z,59.48
2022-12-16T08:08:38.314Z,59.30
2022-12-16T08:09:57.446Z,58.69
2022-12-16T08:11:15.949Z,59.84
2022-12-16T08:12:34.360Z,60.67
2022-12-16T08:13:53.465Z,61.35
2022-12-16T08:15:13.051Z,63.05
2022-12-16T08:16:46.394Z,63.57
2022-12-16T08:18:09.009Z,63.12
2022-12-16T08:19:28.222Z,63.49
2022-12-16T08:20:47.730Z,60.83
2022-12-16T08:22:06.157Z,60.78
2022-12-16T08:23:24.361Z,61.93
2022-12-16T08:24:46.832Z,62.43
2022-12-16T08:26:10.710Z,63.47
2022-12-16T08:27:29.210Z,63.26
2022-12-16T08:28:47.587Z,62.06
2022-12-16T08:30:05.957Z,62.45
2022-12-16T08:31:25.208Z,63.84
2022-12-16T08:32:45.976Z,63.22
2022-12-16T08:34:06.953Z,67.75
2022-12-16T08:35:26.387Z,68.74
2022-12-16T08:36:45.575Z,68.82
2022-12-16T08:38:09.063Z,67.76
2022-12-16T08:39:31.990Z,66.51
2022-12-16T08:40:50.418Z,68.37
2022-12-16T08:42:11.511Z,66.51
2022-12-16T08:43:30.499Z,66.15
2022-12-16T08:44:49.209Z,61.86
2022-12-16T08:46:10.224Z,61.41
2022-12-16T08:47:32.492Z,64.55
2022-12-16T08:48:50.957Z,60.72
2022-12-16T08:50:11.957Z,65.74
2022-12-16T08:51:30.577Z,66.07
2022-12-16T08:52:49.916Z,65.41
2022-12-16T08:54:08.826Z,68.38
2022-12-16T08:55:29.739Z,71.28
2022-12-16T08:56:48.689Z,69.75
2022-12-16T08:58:11.496Z,69.60
2022-12-16T08:59:30.487Z,68.68
2022-12-16T09:00:48.995Z,66.07
2022-12-16T09:02:07.868Z,61.44
2022-12-16T09:03:28.347Z,64.54
2022-12-16T09:04:49.103Z,63.66
2022-12-16T09:06:14.478Z,65.73
2022-12-16T09:07:33.119Z,65.79
2022-12-16T09:08:53.837Z,65.48
2022-12-16T09:10:12.427Z,61.72
2022-12-16T09:11:31.226Z,63.05
2022-12-16T09:12:50.043Z,63.85
2022-12-16T09:14:10.123Z,63.33
2022-12-16T09:15:28.807Z,61.25
2022-12-16T09:16:47.233Z,63.22
2022-12-16T09:18:10.137Z,63.74
2022-12-16T09:19:29.547Z,63.68
2022-12-16T09:20:47.947Z,63.47
2022-12-16T09:22:08.978Z,66.33
2022-12-16T09:23:27.313Z,87.85
2022-12-16T09:24:46.723Z,78.46
2022-12-16T09:26:05.465Z,70.81
2022-12-16T09:27:23.977Z,71.66
2022-12-16T09:28:43.256Z,73.83
2022-12-16T09:30:05.415Z,69.06
2022-12-16T09:31:23.910Z,73.17
2022-12-16T09:32:42.555Z,77.88
2022-12-16T09:34:00.883Z,79.22
2022-12-16T09:35:21.090Z,74.08
2022-12-16T09:36:39.407Z,66.68
2022-12-16T09:38:05.743Z,67.31
2022-12-16T09:39:24.121Z,67.91
2022-12-16T09:40:43.404Z,71.07
2022-12-16T09:42:30.894Z,69.41
2022-12-16T09:44:12.399Z,65.80
2022-12-16T09:45:47.832Z,69.83
2022-12-16T09:47:25.948Z,72.70
2022-12-16T09:49:01.532Z,73.46
2022-12-16T09:50:33.559Z,77.01
2022-12-16T09:51:56.163Z,69.52
2022-12-16T09:53:27.100Z,64.97
2022-12-16T09:55:03.534Z,67.40
2022-12-16T09:56:32.734Z,68.43
2022-12-16T09:57:53.708Z,64.41
2022-12-16T09:59:27.074Z,61.55
2022-12-16T10:00:46.845Z,64.34
2022-12-16T10:02:08.438Z,68.48
2022-12-16T10:03:39.891Z,69.52
2022-12-16T10:05:16.004Z,69.67
2022-12-16T10:06:54.215Z,72.06
2022-12-16T10:08:37.267Z,67.06
2022-12-16T10:10:14.817Z,73.79
2022-12-16T10:11:52.616Z,79.00
2022-12-16T10:13:24.827Z,78.88
2022-12-16T10:14:54.724Z,81.80
2022-12-16T10:16:34.512Z,71.25
2022-12-16T10:18:01.657Z,72.81
2022-12-16T10:19:48.920Z,78.40
2022-12-16T10:21:11.336Z,75.80
2022-12-16T10:22:41.379Z,82.28
2022-12-16T10:24:16.664Z,87.39
2022-12-16T10:25:42.263Z,85.62
2022-12-16T10:27:13.808Z,81.87
2022-12-16T10:28:38.551Z,78.21
2022-12-16T10:30:01.810Z,77.64
2022-12-16T10:31:31.979Z,77.96
2022-12-16T10:32:59.112Z,75.49
2022-12-16T10:34:25.737Z,78.94
2022-12-16T10:35:52.735Z,85.01
2022-12-16T10:37:20.450Z,91.76
2022-12-16T10:38:52.402Z,88.37
2022-12-16T10:40:18.164Z,84.90
2022-12-16T10:41:44.781Z,80.82
2022-12-16T10:43:31.185Z,81.72
2022-12-16T10:45:03.404Z,82.68
2022-12-16T10:46:41.000Z,88.81
2022-12-16T10:48:00.579Z,79.82
2022-12-16T10:49:19.159Z,78.92
2022-12-16T10:50:37.884Z,79.04
2022-12-16T10:51:56.211Z,83.64
2022-12-16T10:53:20.075Z,81.04
2022-12-16T10:54:54.256Z,81.16
2022-12-16T10:56:40.632Z,83.77
2022-12-16T10:58:18.163Z,87.04
2022-12-16T10:59:37.801Z,78.76
2022-12-16T11:01:01.745Z,75.95
2022-12-16T11:02:34.344Z,79.67
2022-12-16T11:03:55.211Z,81.40
2022-12-16T11:05:14.455Z,79.96
2022-12-16T11:06:40.421Z,86.82
2022-12-16T11:08:09.598Z,88.58
2022-12-16T11:09:43.006Z,81.65
2022-12-16T11:11:02.260Z,89.32
2022-12-16T11:12:38.574Z,92.85
2022-12-16T11:13:56.976Z,86.80
2022-12-16T11:15:30.699Z,80.79
2022-12-16T11:16:50.033Z,84.07
2022-12-16T11:18:20.231Z,83.36
2022-12-16T11:19:42.039Z,89.80
2022-12-16T11:21:04.150Z,84.28
2022-12-16T11:22:30.728Z,76.54
2022-12-16T11:23:49.155Z,77.05
2022-12-16T11:25:28.671Z,77.94
2022-12-16T11:26:47.040Z,82.16
2022-12-16T11:28:19.560Z,77.32
2022-12-16T11:29:38.167Z,77.54
2022-12-16T11:30:56.570Z,85.73
2022-12-16T11:32:49.103Z,80.59
2022-12-16T11:34:11.354Z,74.98
2022-12-16T11:35:39.617Z,67.51
2022-12-16T11:37:03.490Z,70.13
2022-12-16T11:38:37.006Z,78.11
2022-12-16T11:40:08.346Z,69.52
2022-12-16T11:41:45.963Z,73.55
2022-12-16T11:43:11.657Z,83.16
2022-12-16T11:44:44.509Z,91.11
2022-12-16T11:46:07.959Z,88.49
2022-12-16T11:47:39.712Z,82.85
2022-12-16T11:49:05.211Z,81.43
2022-12-16T11:50:33.018Z,88.04
2022-12-16T11:52:28.116Z,84.50
2022-12-16T11:53:49.950Z,78.18
2022-12-16T11:55:56.011Z,77.17
2022-12-16T11:57:09.432Z,80.75
2022-12-16T11:58:43.386Z,83.64
2022-12-16T12:00:14.654Z,86.43
2022-12-16T12:01:45.470Z,85.13
2022-12-16T12:03:16.931Z,86.39
2022-12-16T12:04:35.532Z,84.82
2022-12-16T12:06:20.683Z,87.55
2022-12-16T12:07:50.516Z,101.13
2022-12-16T12:09:22.610Z,97.28
2022-12-16T12:11:11.591Z,88.94
2022-12-16T12:12:48.060Z,91.45
2022-12-16T12:14:27.155Z,86.81
2022-12-16T12:16:01.164Z,82.99
2022-12-16T12:17:47.044Z,90.24
2022-12-16T12:19:21.569Z,102.89
2022-12-16T12:21:02.560Z,88.66
2022-12-16T12:22:36.613Z,100.88
2022-12-16T12:24:13.768Z,99.54
2022-12-16T12:25:48.008Z,89.66
2022-12-16T12:27:19.547Z,86.08
2022-12-16T12:28:58.988Z,96.25
2022-12-16T12:30:25.639Z,96.66
2022-12-16T12:32:04.407Z,92.27
2022-12-16T12:33:46.885Z,92.51
2022-12-16T12:35:28.331Z,95.41
2022-12-16T12:37:04.472Z,83.45
2022-12-16T12:38:35.206Z,79.29
2022-12-16T12:40:12.614Z,84.46
2022-12-16T12:41:43.252Z,85.54
2022-12-16T12:43:09.031Z,80.21
2022-12-16T12:44:54.600Z,87.10
2022-12-16T12:46:30.216Z,92.12
2022-12-16T12:48:02.840Z,91.65
2022-12-16T12:49:37.562Z,85.36
2022-12-16T12:51:21.408Z,81.28
2022-12-16T12:53:18.657Z,81.51
2022-12-16T12:54:57.647Z,80.28
2022-12-16T12:56:31.986Z,80.56
2022-12-16T12:57:56.936Z,80.14
2022-12-16T12:59:27.405Z,75.54
2022-12-16T13:00:57.275Z,76.79
2022-12-16T13:02:20.678Z,79.18
2022-12-16T13:03:54.385Z,80.99
2022-12-16T13:05:19.731Z,82.70
2022-12-16T13:06:50.126Z,82.75
2022-12-16T13:08:09.572Z,79.06
2022-12-16T13:09:45.367Z,86.22
2022-12-16T13:11:03.652Z,86.78
2022-12-16T13:12:50.321Z,87.04
2022-12-16T13:14:08.647Z,86.78
2022-12-16T13:15:48.141Z,88.16
2022-12-16T13:17:17.996Z,84.81
2022-12-16T13:18:49.345Z,81.84
2022-12-16T13:20:14.437Z,87.59
2022-12-16T13:22:02.205Z,76.92
2022-12-16T13:23:46.939Z,81.24
2022-12-16T13:25:08.130Z,75.82
2022-12-16T13:26:26.631Z,79.16
2022-12-16T13:28:05.003Z,75.55
2022-12-16T13:29:38.350Z,76.94
2022-12-16T13:31:25.255Z,73.88
2022-12-16T13:32:44.664Z,79.76
2022-12-16T13:34:12.540Z,76.40
2022-12-16T13:35:34.438Z,77.23
2022-12-16T13:36:55.924Z,78.36
2022-12-16T13:38:18.655Z,79.27
2022-12-16T13:39:42.744Z,76.84
2022-12-16T13:41:11.912Z,71.56
2022-12-16T13:43:05.159Z,73.69
2022-12-16T13:44:24.897Z,85.44
2022-12-16T13:45:50.988Z,91.31
2022-12-16T13:47:12.368Z,86.02
2022-12-16T13:48:58.702Z,83.91
2022-12-16T13:50:53.247Z,84.16
2022-12-16T13:52:27.707Z,76.15
2022-12-16T13:53:53.670Z,79.80
2022-12-16T13:55:30.530Z,81.44
2022-12-16T13:56:56.977Z,79.87
2022-12-16T13:58:29.121Z,82.16
2022-12-16T13:59:49.030Z,82.05
2022-12-16T14:01:21.211Z,81.88
2022-12-16T14:02:54.077Z,80.57
2022-12-16T14:04:16.223Z,75.91
2022-12-16T14:05:44.696Z,79.24
2022-12-16T14:07:05.721Z,74.67
2022-12-16T14:08:43.103Z,76.19
2022-12-16T14:10:05.397Z,76.70
2022-12-16T14:11:40.189Z,83.94
2022-12-16T14:13:21.877Z,95.43
2022-12-16T14:14:51.273Z,103.09
2022-12-16T14:16:26.431Z,113.54
2022-12-16T14:18:01.094Z,127.18
2022-12-16T14:19:44.133Z,125.04
2022-12-16T14:21:13.611Z,127.37
2022-12-16T14:22:58.345Z,103.16
2022-12-16T14:24:35.896Z,96.24
2022-12-16T14:26:00.644Z,95.27
2022-12-16T14:27:32.799Z,98.23
2022-12-16T14:28:54.976Z,96.47
2022-12-16T14:30:14.931Z,127.26
2022-12-16T14:31:39.630Z,113.85
2022-12-16T14:32:58.165Z,102.09
2022-12-16T14:34:19.404Z,95.81
2022-12-16T14:35:42.806Z,100.45
2022-12-16T14:37:04.470Z,106.16
2022-12-16T14:38:42.289Z,123.80
2022-12-16T14:40:05.825Z,127.60
2022-12-16T14:41:30.290Z,122.93
2022-12-16T14:42:48.867Z,123.79
2022-12-16T14:44:09.981Z,111.22
2022-12-16T14:45:44.834Z,130.36
2022-12-16T14:47:08.358Z,117.61
2022-12-16T14:48:37.481Z,107.75
2022-12-16T14:50:08.049Z,100.04
2022-12-16T14:51:45.734Z,103.45
2022-12-16T14:53:29.565Z,99.61
2022-12-16T14:54:54.785Z,101.25
2022-12-16T14:56:31.103Z,105.22
2022-12-16T14:57:50.112Z,97.46
2022-12-16T14:59:29.792Z,107.56
2022-12-16T15:00:54.751Z,109.44
2022-12-16T15:02:35.861Z,105.66
2022-12-16T15:03:59.569Z,102.74
2022-12-16T15:05:20.800Z,98.87
2022-12-16T15:06:45.383Z,102.77
2022-12-16T15:08:07.050Z,104.49
2022-12-16T15:09:39.430Z,107.90
2022-12-16T15:10:59.758Z,105.64
2022-12-16T15:12:19.426Z,103.98
2022-12-16T15:13:38.713Z,102.05
2022-12-16T15:14:58.584Z,112.98
2022-12-16T15:16:21.841Z,121.97
2022-12-16T15:17:47.015Z,137.17
2022-12-16T15:19:16.312Z,139.04
2022-12-16T15:20:41.801Z,109.41
2022-12-16T15:22:02.565Z,105.55
2022-12-16T15:23:35.248Z,105.41
2022-12-16T15:25:03.859Z,105.61
2022-12-16T15:26:24.303Z,108.27
2022-12-16T15:27:51.809Z,115.13
2022-12-16T15:29:10.601Z,116.41
2022-12-16T15:30:52.303Z,116.05
2022-12-16T15:32:10.637Z,130.58
2022-12-16T15:33:34.961Z,148.09
2022-12-16T15:35:03.791Z,145.91
2022-12-16T15:36:40.627Z,137.77
2022-12-16T15:38:03.897Z,129.37
2022-12-16T15:39:52.233Z,126.68
2022-12-16T15:41:10.729Z,139.03
2022-12-16T15:42:39.804Z,142.96
2022-12-16T15:44:03.095Z,133.39
2022-12-16T15:45:35.617Z,119.75
2022-12-16T15:46:54.343Z,135.01
2022-12-16T15:48:14.143Z,136.86
2022-12-16T15:49:39.972Z,128.31
2022-12-16T15:51:09.407Z,137.84
2022-12-16T15:52:53.209Z,119.59
2022-12-16T15:54:19.430Z,122.63
2022-12-16T15:55:47.904Z,124.84
2022-12-16T15:57:07.050Z,126.73
2022-12-16T15:58:40.067Z,131.23
2022-12-16T16:00:13.508Z,140.78
2022-12-16T16:01:36.629Z,149.01
2022-12-16T16:03:04.324Z,144.91
2022-12-16T16:04:37.412Z,126.51
2022-12-16T16:05:56.171Z,121.22
2022-12-16T16:07:14.858Z,122.24
2022-12-16T16:08:34.341Z,116.37
2022-12-16T16:09:55.064Z,116.67
2022-12-16T16:11:16.423Z,115.21
2022-12-16T16:12:38.178Z,128.14
2022-12-16T16:14:04.241Z,140.73
2022-12-16T16:15:28.801Z,135.26
2022-12-16T16:16:48.099Z,119.57
2022-12-16T16:18:12.186Z,114.24
2022-12-16T16:19:39.827Z,109.80
2022-12-16T16:21:05.351Z,113.18
2022-12-16T16:22:28.938Z,119.37
2022-12-16T16:23:50.928Z,115.88
2022-12-16T16:25:10.480Z,111.88
2022-12-16T16:26:37.244Z,106.36
2022-12-16T16:27:55.561Z,107.31
2022-12-16T16:29:14.084Z,103.03
2022-12-16T16:30:33.371Z,106.86
2022-12-16T16:31:51.740Z,101.36
2022-12-16T16:33:12.806Z,97.89
2022-12-16T16:34:32.027Z,95.10
2022-12-16T16:35:51.289Z,96.85
2022-12-16T16:37:14.612Z,95.90
2022-12-16T16:38:33.038Z,94.21
2022-12-16T16:39:51.338Z,95.40
2022-12-16T16:41:11.039Z,99.71
2022-12-16T16:42:31.993Z,110.01
2022-12-16T16:43:50.404Z,108.99
2022-12-16T16:45:10.935Z,107.47
2022-12-16T16:46:49.963Z,116.34
2022-12-16T16:48:19.761Z,127.92
2022-12-16T16:49:44.530Z,123.53
2022-12-16T16:51:03.384Z,119.34
2022-12-16T16:52:27.809Z,113.06
2022-12-16T16:53:46.195Z,106.99
2022-12-16T16:55:04.527Z,121.70
2022-12-16T16:56:27.622Z,111.06
2022-12-16T16:57:53.581Z,105.77
2022-12-16T16:59:11.980Z,94.45
2022-12-16T17:00:32.007Z,89.24
2022-12-16T17:01:51.224Z,87.79
2022-12-16T17:03:10.914Z,88.62
2022-12-16T17:04:29.453Z,85.89
2022-12-16T17:05:48.010Z,89.71
2022-12-16T17:07:06.761Z,95.97
2022-12-16T17:08:26.033Z,93.84
2022-12-16T17:09:44.520Z,93.99
2022-12-16T17:11:03.493Z,100.89
2022-12-16T17:12:35.551Z,108.76
2022-12-16T17:13:57.380Z,106.48
2022-12-16T17:15:15.836Z,107.54
2022-12-16T17:16:34.222Z,103.07
2022-12-16T17:17:52.794Z,105.92